Terminal Aerodrome Forecast
Issued by NWS

Home | Current Version | Previous Version | Text Only | Print | Product List | Glossary On
Versions: 1 2 3 4 5 6 7 8 9 10 11 12 13 14 15 16 17 18 19 20 21 22 23 24 25 26
000
FTUS41 KCAR 272359 AAA
TAFFVE
TAF AMD
KFVE 272359Z 2800/2824 30005KT P6SM BKN100
     FM280800 VRB03KT 3SM BR SCT100
     FM281000 30006KT 3/4SM BR SCT003
     FM281200 24006KT P6SM BKN200=

USA.gov is the U.S. government's official web portal to all federal, state and local government web resources and services.